sensor_id;sensor_type;location;lat;lon;timestamp;P1;durP1;ratioP1;P2;durP2;ratioP2
20090;SDS011;10205;49.678;6.560;2023-02-12T00:00:47;21.97;;;15.13;;
20090;SDS011;10205;49.678;6.560;2023-02-12T00:03:14;22.80;;;15.07;;
20090;SDS011;10205;49.678;6.560;2023-02-12T00:05:41;20.50;;;14.27;;
20090;SDS011;10205;49.678;6.560;2023-02-12T00:08:08;21.43;;;14.93;;
20090;SDS011;10205;49.678;6.560;2023-02-12T00:10:38;23.88;;;16.10;;
20090;SDS011;10205;49.678;6.560;2023-02-12T00:13:07;20.07;;;14.13;;
20090;SDS011;10205;49.678;6.560;2023-02-12T00:15:36;19.60;;;13.73;;
20090;SDS011;10205;49.678;6.560;2023-02-12T00:18:06;19.07;;;13.70;;
20090;SDS011;10205;49.678;6.560;2023-02-12T00:20:33;22.50;;;14.47;;
20090;SDS011;10205;49.678;6.560;2023-02-12T00:23:03;19.80;;;13.60;;
20090;SDS011;10205;49.678;6.560;2023-02-12T00:25:31;19.87;;;13.73;;
20090;SDS011;10205;49.678;6.560;2023-02-12T00:27:58;20.10;;;14.20;;
20090;SDS011;10205;49.678;6.560;2023-02-12T00:30:26;19.07;;;13.27;;
20090;SDS011;10205;49.678;6.560;2023-02-12T00:32:53;23.03;;;14.63;;
20090;SDS011;10205;49.678;6.560;2023-02-12T00:35:22;23.50;;;14.73;;
20090;SDS011;10205;49.678;6.560;2023-02-12T00:37:49;20.57;;;14.40;;
20090;SDS011;10205;49.678;6.560;2023-02-12T00:40:16;23.03;;;14.43;;
20090;SDS011;10205;49.678;6.560;2023-02-12T00:42:44;20.60;;;14.17;;
20090;SDS011;10205;49.678;6.560;2023-02-12T00:45:11;22.53;;;14.83;;
20090;SDS011;10205;49.678;6.560;2023-02-12T00:47:38;23.10;;;15.27;;
20090;SDS011;10205;49.678;6.560;2023-02-12T00:50:07;21.23;;;15.13;;
20090;SDS011;10205;49.678;6.560;2023-02-12T00:52:39;23.90;;;16.20;;
20090;SDS011;10205;49.678;6.560;2023-02-12T00:55:07;25.83;;;15.33;;
20090;SDS011;10205;49.678;6.560;2023-02-12T00:57:34;21.80;;;14.03;;
20090;SDS011;10205;49.678;6.560;2023-02-12T01:00:01;18.73;;;13.50;;
20090;SDS011;10205;49.678;6.560;2023-02-12T01:02:29;22.23;;;13.90;;
20090;SDS011;10205;49.678;6.560;2023-02-12T01:04:57;21.67;;;13.70;;
20090;SDS011;10205;49.678;6.560;2023-02-12T01:07:24;18.33;;;14.03;;
20090;SDS011;10205;49.678;6.560;2023-02-12T01:09:52;19.33;;;13.60;;
20090;SDS011;10205;49.678;6.560;2023-02-12T01:12:19;22.17;;;15.07;;
20090;SDS011;10205;49.678;6.560;2023-02-12T01:14:46;23.07;;;14.33;;
20090;SDS011;10205;49.678;6.560;2023-02-12T01:17:15;19.50;;;13.67;;
20090;SDS011;10205;49.678;6.560;2023-02-12T01:19:42;20.67;;;14.20;;
20090;SDS011;10205;49.678;6.560;2023-02-12T01:22:11;19.27;;;13.90;;
20090;SDS011;10205;49.678;6.560;2023-02-12T01:24:38;18.70;;;13.57;;
20090;SDS011;10205;49.678;6.560;2023-02-12T01:27:06;21.70;;;14.17;;
20090;SDS011;10205;49.678;6.560;2023-02-12T01:29:34;19.70;;;13.73;;
20090;SDS011;10205;49.678;6.560;2023-02-12T01:32:03;19.37;;;13.60;;
20090;SDS011;10205;49.678;6.560;2023-02-12T01:34:32;19.23;;;13.37;;
20090;SDS011;10205;49.678;6.560;2023-02-12T01:36:59;21.97;;;14.83;;
20090;SDS011;10205;49.678;6.560;2023-02-12T01:39:27;18.90;;;13.93;;
20090;SDS011;10205;49.678;6.560;2023-02-12T01:41:54;19.13;;;13.67;;
20090;SDS011;10205;49.678;6.560;2023-02-12T01:44:26;16.73;;;12.10;;
20090;SDS011;10205;49.678;6.560;2023-02-12T01:46:56;21.27;;;13.90;;
20090;SDS011;10205;49.678;6.560;2023-02-12T01:49:29;21.70;;;13.80;;
20090;SDS011;10205;49.678;6.560;2023-02-12T01:52:04;19.27;;;13.07;;
20090;SDS011;10205;49.678;6.560;2023-02-12T01:54:38;20.37;;;13.73;;
20090;SDS011;10205;49.678;6.560;2023-02-12T01:57:07;18.27;;;12.77;;
20090;SDS011;10205;49.678;6.560;2023-02-12T01:59:38;18.73;;;13.60;;
20090;SDS011;10205;49.678;6.560;2023-02-12T02:02:08;20.07;;;14.60;;
20090;SDS011;10205;49.678;6.560;2023-02-12T02:04:36;22.70;;;14.53;;
20090;SDS011;10205;49.678;6.560;2023-02-12T02:07:10;21.97;;;13.60;;
20090;SDS011;10205;49.678;6.560;2023-02-12T02:09:40;18.87;;;14.50;;
20090;SDS011;10205;49.678;6.560;2023-02-12T02:12:08;17.40;;;13.37;;
20090;SDS011;10205;49.678;6.560;2023-02-12T02:14:55;18.73;;;12.83;;
20090;SDS011;10205;49.678;6.560;2023-02-12T02:17:31;20.83;;;13.07;;
20090;SDS011;10205;49.678;6.560;2023-02-12T02:27:01;19.00;;;12.83;;
20090;SDS011;10205;49.678;6.560;2023-02-12T02:32:57;17.90;;;13.63;;
20090;SDS011;10205;49.678;6.560;2023-02-12T02:35:45;21.63;;;13.83;;
20090;SDS011;10205;49.678;6.560;2023-02-12T02:38:22;18.40;;;13.47;;
20090;SDS011;10205;49.678;6.560;2023-02-12T02:41:00;23.90;;;14.53;;
20090;SDS011;10205;49.678;6.560;2023-02-12T02:43:48;21.47;;;13.90;;
20090;SDS011;10205;49.678;6.560;2023-02-12T02:46:21;18.50;;;12.73;;
20090;SDS011;10205;49.678;6.560;2023-02-12T02:48:59;18.97;;;13.73;;
20090;SDS011;10205;49.678;6.560;2023-02-12T02:51:32;26.93;;;16.17;;
20090;SDS011;10205;49.678;6.560;2023-02-12T02:54:05;20.40;;;14.67;;
20090;SDS011;10205;49.678;6.560;2023-02-12T02:56:38;24.93;;;16.90;;
20090;SDS011;10205;49.678;6.560;2023-02-12T02:59:10;20.60;;;15.60;;
20090;SDS011;10205;49.678;6.560;2023-02-12T03:01:46;19.97;;;14.23;;
20090;SDS011;10205;49.678;6.560;2023-02-12T03:04:18;20.47;;;14.17;;
20090;SDS011;10205;49.678;6.560;2023-02-12T03:06:53;18.07;;;13.00;;
20090;SDS011;10205;49.678;6.560;2023-02-12T03:09:27;18.83;;;14.00;;
20090;SDS011;10205;49.678;6.560;2023-02-12T03:12:03;19.50;;;13.73;;
20090;SDS011;10205;49.678;6.560;2023-02-12T03:14:38;17.20;;;13.37;;
20090;SDS011;10205;49.678;6.560;2023-02-12T03:17:15;22.07;;;15.07;;
20090;SDS011;10205;49.678;6.560;2023-02-12T03:19:49;20.60;;;15.53;;
20090;SDS011;10205;49.678;6.560;2023-02-12T03:22:23;22.73;;;15.30;;
20090;SDS011;10205;49.678;6.560;2023-02-12T03:24:57;24.30;;;15.73;;
20090;SDS011;10205;49.678;6.560;2023-02-12T03:27:33;22.00;;;15.23;;
20090;SDS011;10205;49.678;6.560;2023-02-12T03:30:07;17.47;;;12.37;;
20090;SDS011;10205;49.678;6.560;2023-02-12T03:32:39;23.63;;;15.33;;
20090;SDS011;10205;49.678;6.560;2023-02-12T03:35:20;18.27;;;13.30;;
20090;SDS011;10205;49.678;6.560;2023-02-12T03:37:55;21.43;;;15.60;;
20090;SDS011;10205;49.678;6.560;2023-02-12T03:40:30;22.80;;;14.90;;
20090;SDS011;10205;49.678;6.560;2023-02-12T03:43:03;21.97;;;15.07;;
20090;SDS011;10205;49.678;6.560;2023-02-12T03:45:41;17.77;;;12.43;;
20090;SDS011;10205;49.678;6.560;2023-02-12T03:48:20;18.90;;;13.70;;
20090;SDS011;10205;49.678;6.560;2023-02-12T03:50:55;23.70;;;15.83;;
20090;SDS011;10205;49.678;6.560;2023-02-12T03:53:26;22.00;;;14.57;;
20090;SDS011;10205;49.678;6.560;2023-02-12T03:55:55;22.53;;;14.60;;
20090;SDS011;10205;49.678;6.560;2023-02-12T03:58:28;21.83;;;14.77;;
20090;SDS011;10205;49.678;6.560;2023-02-12T04:01:00;21.80;;;15.47;;
20090;SDS011;10205;49.678;6.560;2023-02-12T04:03:30;22.63;;;15.53;;
20090;SDS011;10205;49.678;6.560;2023-02-12T04:05:58;19.23;;;13.80;;
20090;SDS011;10205;49.678;6.560;2023-02-12T04:08:25;19.23;;;13.77;;
20090;SDS011;10205;49.678;6.560;2023-02-12T04:10:56;25.97;;;14.73;;
20090;SDS011;10205;49.678;6.560;2023-02-12T04:13:37;16.83;;;12.07;;
20090;SDS011;10205;49.678;6.560;2023-02-12T04:16:21;21.23;;;14.70;;
20090;SDS011;10205;49.678;6.560;2023-02-12T04:18:59;18.03;;;13.50;;
20090;SDS011;10205;49.678;6.560;2023-02-12T04:21:32;16.37;;;12.37;;
20090;SDS011;10205;49.678;6.560;2023-02-12T04:24:15;20.10;;;14.47;;
20090;SDS011;10205;49.678;6.560;2023-02-12T04:26:51;19.37;;;13.83;;
20090;SDS011;10205;49.678;6.560;2023-02-12T04:29:28;18.07;;;12.83;;
20090;SDS011;10205;49.678;6.560;2023-02-12T04:32:09;20.30;;;14.13;;
20090;SDS011;10205;49.678;6.560;2023-02-12T04:34:47;18.97;;;14.50;;
20090;SDS011;10205;49.678;6.560;2023-02-12T04:37:23;24.13;;;15.03;;
20090;SDS011;10205;49.678;6.560;2023-02-12T04:39:56;19.97;;;14.90;;
20090;SDS011;10205;49.678;6.560;2023-02-12T04:42:27;18.90;;;13.67;;
20090;SDS011;10205;49.678;6.560;2023-02-12T04:44:54;17.30;;;13.27;;
20090;SDS011;10205;49.678;6.560;2023-02-12T04:47:21;20.27;;;14.90;;
20090;SDS011;10205;49.678;6.560;2023-02-12T04:49:50;22.73;;;15.40;;
20090;SDS011;10205;49.678;6.560;2023-02-12T04:52:19;20.07;;;13.90;;
20090;SDS011;10205;49.678;6.560;2023-02-12T04:54:46;19.70;;;13.57;;
20090;SDS011;10205;49.678;6.560;2023-02-12T04:57:13;18.20;;;13.20;;
20090;SDS011;10205;49.678;6.560;2023-02-12T04:59:40;22.30;;;15.87;;
20090;SDS011;10205;49.678;6.560;2023-02-12T05:02:07;22.30;;;14.53;;
20090;SDS011;10205;49.678;6.560;2023-02-12T05:04:34;22.63;;;15.37;;
20090;SDS011;10205;49.678;6.560;2023-02-12T05:07:03;22.50;;;16.00;;
20090;SDS011;10205;49.678;6.560;2023-02-12T05:09:30;23.10;;;15.53;;
20090;SDS011;10205;49.678;6.560;2023-02-12T05:11:58;22.90;;;15.83;;
20090;SDS011;10205;49.678;6.560;2023-02-12T05:14:25;19.43;;;14.30;;
20090;SDS011;10205;49.678;6.560;2023-02-12T05:16:53;22.63;;;15.00;;
20090;SDS011;10205;49.678;6.560;2023-02-12T05:19:20;25.90;;;16.57;;
20090;SDS011;10205;49.678;6.560;2023-02-12T05:21:50;24.43;;;16.47;;
20090;SDS011;10205;49.678;6.560;2023-02-12T05:24:19;26.57;;;15.03;;
20090;SDS011;10205;49.678;6.560;2023-02-12T05:26:47;23.43;;;15.97;;
20090;SDS011;10205;49.678;6.560;2023-02-12T05:29:31;23.40;;;15.37;;
20090;SDS011;10205;49.678;6.560;2023-02-12T05:31:58;21.13;;;15.20;;
20090;SDS011;10205;49.678;6.560;2023-02-12T05:34:25;25.87;;;16.70;;
20090;SDS011;10205;49.678;6.560;2023-02-12T05:36:53;22.03;;;16.53;;
20090;SDS011;10205;49.678;6.560;2023-02-12T05:39:21;25.00;;;16.20;;
20090;SDS011;10205;49.678;6.560;2023-02-12T05:41:48;25.23;;;16.17;;
20090;SDS011;10205;49.678;6.560;2023-02-12T05:44:15;21.53;;;16.17;;
20090;SDS011;10205;49.678;6.560;2023-02-12T05:46:42;25.40;;;16.90;;
20090;SDS011;10205;49.678;6.560;2023-02-12T05:49:09;22.70;;;16.20;;
20090;SDS011;10205;49.678;6.560;2023-02-12T05:51:37;24.53;;;17.27;;
20090;SDS011;10205;49.678;6.560;2023-02-12T05:54:06;26.30;;;16.30;;
20090;SDS011;10205;49.678;6.560;2023-02-12T05:56:35;24.20;;;16.97;;
20090;SDS011;10205;49.678;6.560;2023-02-12T05:59:12;26.43;;;16.27;;
20090;SDS011;10205;49.678;6.560;2023-02-12T06:01:42;26.77;;;17.40;;
20090;SDS011;10205;49.678;6.560;2023-02-12T06:04:12;25.20;;;15.57;;
20090;SDS011;10205;49.678;6.560;2023-02-12T06:06:42;27.23;;;16.70;;
20090;SDS011;10205;49.678;6.560;2023-02-12T06:09:09;25.27;;;16.70;;
20090;SDS011;10205;49.678;6.560;2023-02-12T06:11:40;23.83;;;17.00;;
20090;SDS011;10205;49.678;6.560;2023-02-12T06:14:09;26.50;;;17.53;;
20090;SDS011;10205;49.678;6.560;2023-02-12T06:16:40;25.87;;;17.23;;
20090;SDS011;10205;49.678;6.560;2023-02-12T06:19:10;24.73;;;16.97;;
20090;SDS011;10205;49.678;6.560;2023-02-12T06:21:38;21.57;;;16.30;;
20090;SDS011;10205;49.678;6.560;2023-02-12T06:24:05;23.97;;;16.83;;
20090;SDS011;10205;49.678;6.560;2023-02-12T06:26:33;28.53;;;17.63;;
20090;SDS011;10205;49.678;6.560;2023-02-12T06:29:03;25.20;;;16.83;;
20090;SDS011;10205;49.678;6.560;2023-02-12T06:31:31;26.80;;;17.03;;
20090;SDS011;10205;49.678;6.560;2023-02-12T06:34:01;24.73;;;17.13;;
20090;SDS011;10205;49.678;6.560;2023-02-12T06:36:31;26.63;;;17.77;;
20090;SDS011;10205;49.678;6.560;2023-02-12T06:38:59;24.73;;;16.60;;
20090;SDS011;10205;49.678;6.560;2023-02-12T06:41:27;23.50;;;16.23;;
20090;SDS011;10205;49.678;6.560;2023-02-12T06:43:57;25.47;;;16.73;;
20090;SDS011;10205;49.678;6.560;2023-02-12T06:46:27;22.33;;;16.33;;
20090;SDS011;10205;49.678;6.560;2023-02-12T06:48:54;28.40;;;18.57;;
20090;SDS011;10205;49.678;6.560;2023-02-12T06:51:24;24.60;;;16.83;;
20090;SDS011;10205;49.678;6.560;2023-02-12T06:53:53;27.30;;;17.83;;
20090;SDS011;10205;49.678;6.560;2023-02-12T06:56:21;26.40;;;17.97;;
20090;SDS011;10205;49.678;6.560;2023-02-12T06:58:51;29.93;;;18.57;;
20090;SDS011;10205;49.678;6.560;2023-02-12T07:01:22;26.87;;;18.73;;
20090;SDS011;10205;49.678;6.560;2023-02-12T07:03:54;25.87;;;17.73;;
20090;SDS011;10205;49.678;6.560;2023-02-12T07:06:23;28.47;;;18.03;;
20090;SDS011;10205;49.678;6.560;2023-02-12T07:08:53;29.57;;;18.03;;
20090;SDS011;10205;49.678;6.560;2023-02-12T07:11:21;25.27;;;17.47;;
20090;SDS011;10205;49.678;6.560;2023-02-12T07:13:50;27.70;;;17.57;;
20090;SDS011;10205;49.678;6.560;2023-02-12T07:16:17;25.67;;;17.53;;
20090;SDS011;10205;49.678;6.560;2023-02-12T07:18:44;28.73;;;18.90;;
20090;SDS011;10205;49.678;6.560;2023-02-12T07:21:16;23.00;;;16.80;;
20090;SDS011;10205;49.678;6.560;2023-02-12T07:23:45;25.10;;;17.80;;
20090;SDS011;10205;49.678;6.560;2023-02-12T07:26:13;23.67;;;17.17;;
20090;SDS011;10205;49.678;6.560;2023-02-12T07:28:44;24.90;;;16.77;;
20090;SDS011;10205;49.678;6.560;2023-02-12T07:31:11;28.50;;;19.13;;
20090;SDS011;10205;49.678;6.560;2023-02-12T07:33:41;28.20;;;19.20;;
20090;SDS011;10205;49.678;6.560;2023-02-12T07:36:13;32.67;;;20.40;;
20090;SDS011;10205;49.678;6.560;2023-02-12T07:38:44;24.77;;;17.43;;
20090;SDS011;10205;49.678;6.560;2023-02-12T07:41:13;26.07;;;17.73;;
20090;SDS011;10205;49.678;6.560;2023-02-12T07:43:43;27.13;;;17.90;;
20090;SDS011;10205;49.678;6.560;2023-02-12T07:46:15;29.73;;;20.07;;
20090;SDS011;10205;49.678;6.560;2023-02-12T07:48:45;28.47;;;19.47;;
20090;SDS011;10205;49.678;6.560;2023-02-12T07:51:14;29.53;;;19.17;;
20090;SDS011;10205;49.678;6.560;2023-02-12T07:53:44;28.47;;;18.73;;
20090;SDS011;10205;49.678;6.560;2023-02-12T07:56:12;28.03;;;18.83;;
20090;SDS011;10205;49.678;6.560;2023-02-12T07:58:41;29.83;;;19.23;;
20090;SDS011;10205;49.678;6.560;2023-02-12T08:01:12;29.03;;;18.33;;
20090;SDS011;10205;49.678;6.560;2023-02-12T08:03:43;31.43;;;20.13;;
20090;SDS011;10205;49.678;6.560;2023-02-12T08:06:18;28.17;;;18.43;;
20090;SDS011;10205;49.678;6.560;2023-02-12T08:08:49;28.40;;;19.37;;
20090;SDS011;10205;49.678;6.560;2023-02-12T08:11:20;26.03;;;18.43;;
20090;SDS011;10205;49.678;6.560;2023-02-12T08:13:48;27.27;;;19.13;;
20090;SDS011;10205;49.678;6.560;2023-02-12T08:16:17;26.80;;;17.90;;
20090;SDS011;10205;49.678;6.560;2023-02-12T08:18:46;23.40;;;16.70;;
20090;SDS011;10205;49.678;6.560;2023-02-12T08:21:16;25.03;;;17.87;;
20090;SDS011;10205;49.678;6.560;2023-02-12T08:23:46;27.13;;;18.87;;
20090;SDS011;10205;49.678;6.560;2023-02-12T08:26:15;27.10;;;17.67;;
20090;SDS011;10205;49.678;6.560;2023-02-12T08:28:46;30.57;;;17.70;;
20090;SDS011;10205;49.678;6.560;2023-02-12T08:31:15;28.93;;;20.17;;
20090;SDS011;10205;49.678;6.560;2023-02-12T08:33:47;25.67;;;17.77;;
20090;SDS011;10205;49.678;6.560;2023-02-12T08:36:20;27.67;;;17.70;;
20090;SDS011;10205;49.678;6.560;2023-02-12T08:38:49;33.43;;;21.23;;
20090;SDS011;10205;49.678;6.560;2023-02-12T08:41:18;32.97;;;21.10;;
20090;SDS011;10205;49.678;6.560;2023-02-12T08:43:48;31.57;;;21.13;;
20090;SDS011;10205;49.678;6.560;2023-02-12T08:46:19;34.17;;;21.23;;
20090;SDS011;10205;49.678;6.560;2023-02-12T08:48:50;33.43;;;21.13;;
20090;SDS011;10205;49.678;6.560;2023-02-12T08:51:23;32.13;;;21.27;;
20090;SDS011;10205;49.678;6.560;2023-02-12T08:53:53;28.10;;;18.83;;
20090;SDS011;10205;49.678;6.560;2023-02-12T08:56:22;28.20;;;19.90;;
20090;SDS011;10205;49.678;6.560;2023-02-12T08:58:52;32.10;;;20.40;;
20090;SDS011;10205;49.678;6.560;2023-02-12T09:01:22;34.57;;;20.43;;
20090;SDS011;10205;49.678;6.560;2023-02-12T09:03:51;32.43;;;20.00;;
20090;SDS011;10205;49.678;6.560;2023-02-12T09:06:19;29.33;;;20.43;;
20090;SDS011;10205;49.678;6.560;2023-02-12T09:08:50;34.00;;;22.23;;
20090;SDS011;10205;49.678;6.560;2023-02-12T09:11:20;30.07;;;20.97;;
20090;SDS011;10205;49.678;6.560;2023-02-12T09:13:54;36.07;;;21.40;;
20090;SDS011;10205;49.678;6.560;2023-02-12T09:16:23;33.03;;;21.73;;
20090;SDS011;10205;49.678;6.560;2023-02-12T09:18:51;34.77;;;22.00;;
20090;SDS011;10205;49.678;6.560;2023-02-12T09:21:19;35.03;;;21.90;;
20090;SDS011;10205;49.678;6.560;2023-02-12T09:23:47;32.07;;;21.17;;
20090;SDS011;10205;49.678;6.560;2023-02-12T09:26:15;34.57;;;22.23;;
20090;SDS011;10205;49.678;6.560;2023-02-12T09:28:45;37.70;;;22.27;;
20090;SDS011;10205;49.678;6.560;2023-02-12T09:31:15;32.90;;;21.53;;
20090;SDS011;10205;49.678;6.560;2023-02-12T09:33:47;32.07;;;20.53;;
20090;SDS011;10205;49.678;6.560;2023-02-12T09:36:15;32.23;;;19.83;;
20090;SDS011;10205;49.678;6.560;2023-02-12T09:38:43;34.07;;;20.63;;
20090;SDS011;10205;49.678;6.560;2023-02-12T09:44:25;40.17;;;21.90;;
20090;SDS011;10205;49.678;6.560;2023-02-12T09:47:02;34.57;;;22.13;;
20090;SDS011;10205;49.678;6.560;2023-02-12T09:49:41;34.20;;;21.87;;
20090;SDS011;10205;49.678;6.560;2023-02-12T09:52:47;35.40;;;22.80;;
20090;SDS011;10205;49.678;6.560;2023-02-12T09:55:16;31.00;;;20.50;;
20090;SDS011;10205;49.678;6.560;2023-02-12T09:57:46;35.03;;;21.77;;
20090;SDS011;10205;49.678;6.560;2023-02-12T10:00:14;29.73;;;19.53;;
20090;SDS011;10205;49.678;6.560;2023-02-12T10:02:48;37.07;;;20.90;;
20090;SDS011;10205;49.678;6.560;2023-02-12T10:05:19;33.77;;;22.30;;
20090;SDS011;10205;49.678;6.560;2023-02-12T10:08:02;42.47;;;23.27;;
20090;SDS011;10205;49.678;6.560;2023-02-12T10:10:58;33.30;;;23.53;;
20090;SDS011;10205;49.678;6.560;2023-02-12T10:13:46;36.33;;;22.67;;
20090;SDS011;10205;49.678;6.560;2023-02-12T10:16:25;35.27;;;23.10;;
20090;SDS011;10205;49.678;6.560;2023-02-12T10:19:14;37.77;;;22.90;;
20090;SDS011;10205;49.678;6.560;2023-02-12T10:21:58;35.53;;;22.70;;
20090;SDS011;10205;49.678;6.560;2023-02-12T10:24:44;36.17;;;21.77;;
20090;SDS011;10205;49.678;6.560;2023-02-12T10:27:33;38.73;;;26.00;;
20090;SDS011;10205;49.678;6.560;2023-02-12T10:30:16;39.60;;;23.50;;
20090;SDS011;10205;49.678;6.560;2023-02-12T10:32:48;41.70;;;24.37;;
20090;SDS011;10205;49.678;6.560;2023-02-12T10:35:21;35.97;;;25.03;;
20090;SDS011;10205;49.678;6.560;2023-02-12T10:37:52;37.60;;;23.90;;
20090;SDS011;10205;49.678;6.560;2023-02-12T10:40:26;37.53;;;23.40;;
20090;SDS011;10205;49.678;6.560;2023-02-12T10:42:58;41.40;;;24.83;;
20090;SDS011;10205;49.678;6.560;2023-02-12T10:45:29;35.23;;;23.93;;
20090;SDS011;10205;49.678;6.560;2023-02-12T10:48:03;35.10;;;22.67;;
20090;SDS011;10205;49.678;6.560;2023-02-12T10:50:40;33.90;;;21.57;;
20090;SDS011;10205;49.678;6.560;2023-02-12T10:53:29;35.37;;;23.07;;
20090;SDS011;10205;49.678;6.560;2023-02-12T10:56:04;35.07;;;22.07;;
20090;SDS011;10205;49.678;6.560;2023-02-12T10:58:42;36.53;;;23.30;;
20090;SDS011;10205;49.678;6.560;2023-02-12T11:01:29;35.63;;;24.17;;
20090;SDS011;10205;49.678;6.560;2023-02-12T11:04:18;39.33;;;23.10;;
20090;SDS011;10205;49.678;6.560;2023-02-12T11:06:58;34.07;;;22.43;;
20090;SDS011;10205;49.678;6.560;2023-02-12T11:09:30;39.10;;;23.07;;
20090;SDS011;10205;49.678;6.560;2023-02-12T11:12:04;31.23;;;21.10;;
20090;SDS011;10205;49.678;6.560;2023-02-12T11:14:56;34.10;;;21.27;;
20090;SDS011;10205;49.678;6.560;2023-02-12T11:17:29;34.60;;;21.83;;
20090;SDS011;10205;49.678;6.560;2023-02-12T11:22:54;35.60;;;22.35;;
20090;SDS011;10205;49.678;6.560;2023-02-12T11:25:24;31.60;;;21.13;;
20090;SDS011;10205;49.678;6.560;2023-02-12T11:27:58;30.67;;;20.10;;
20090;SDS011;10205;49.678;6.560;2023-02-12T11:30:29;34.13;;;20.87;;
20090;SDS011;10205;49.678;6.560;2023-02-12T11:35:52;29.90;;;20.20;;
20090;SDS011;10205;49.678;6.560;2023-02-12T11:38:24;32.72;;;20.20;;
20090;SDS011;10205;49.678;6.560;2023-02-12T11:41:04;33.87;;;19.17;;
20090;SDS011;10205;49.678;6.560;2023-02-12T11:43:48;31.33;;;19.87;;
20090;SDS011;10205;49.678;6.560;2023-02-12T11:46:18;32.13;;;20.03;;
20090;SDS011;10205;49.678;6.560;2023-02-12T11:48:49;32.10;;;19.50;;
20090;SDS011;10205;49.678;6.560;2023-02-12T11:51:19;32.38;;;20.30;;
20090;SDS011;10205;49.678;6.560;2023-02-12T11:53:53;32.67;;;20.63;;
20090;SDS011;10205;49.678;6.560;2023-02-12T11:56:25;31.75;;;19.52;;
20090;SDS011;10205;49.678;6.560;2023-02-12T11:59:09;33.17;;;20.57;;
20090;SDS011;10205;49.678;6.560;2023-02-12T12:02:00;32.55;;;20.58;;
20090;SDS011;10205;49.678;6.560;2023-02-12T12:05:00;28.37;;;18.27;;
20090;SDS011;10205;49.678;6.560;2023-02-12T12:07:35;32.13;;;18.97;;
20090;SDS011;10205;49.678;6.560;2023-02-12T12:10:11;27.90;;;18.58;;
20090;SDS011;10205;49.678;6.560;2023-02-12T12:12:47;33.53;;;19.02;;
20090;SDS011;10205;49.678;6.560;2023-02-12T12:15:21;29.00;;;19.20;;
20090;SDS011;10205;49.678;6.560;2023-02-12T12:18:15;29.57;;;19.20;;
20090;SDS011;10205;49.678;6.560;2023-02-12T12:21:10;32.50;;;20.07;;
20090;SDS011;10205;49.678;6.560;2023-02-12T12:23:50;30.13;;;18.63;;
20090;SDS011;10205;49.678;6.560;2023-02-12T12:26:23;26.98;;;17.52;;
20090;SDS011;10205;49.678;6.560;2023-02-12T12:28:54;27.90;;;17.92;;
20090;SDS011;10205;49.678;6.560;2023-02-12T12:31:31;29.63;;;18.53;;
20090;SDS011;10205;49.678;6.560;2023-02-12T12:34:05;24.47;;;16.10;;
20090;SDS011;10205;49.678;6.560;2023-02-12T12:36:46;25.73;;;16.05;;
20090;SDS011;10205;49.678;6.560;2023-02-12T12:39:35;24.77;;;16.70;;
20090;SDS011;10205;49.678;6.560;2023-02-12T12:42:17;23.90;;;16.47;;
20090;SDS011;10205;49.678;6.560;2023-02-12T12:45:16;23.97;;;14.37;;
20090;SDS011;10205;49.678;6.560;2023-02-12T12:48:08;32.13;;;15.80;;
20090;SDS011;10205;49.678;6.560;2023-02-12T12:51:08;23.48;;;14.70;;
20090;SDS011;10205;49.678;6.560;2023-02-12T12:53:57;21.67;;;14.02;;
20090;SDS011;10205;49.678;6.560;2023-02-12T12:56:47;24.13;;;15.13;;
20090;SDS011;10205;49.678;6.560;2023-02-12T12:59:39;23.30;;;14.98;;
20090;SDS011;10205;49.678;6.560;2023-02-12T13:02:38;20.55;;;13.25;;
20090;SDS011;10205;49.678;6.560;2023-02-12T13:08:53;21.60;;;12.95;;
20090;SDS011;10205;49.678;6.560;2023-02-12T13:12:00;21.30;;;12.98;;
20090;SDS011;10205;49.678;6.560;2023-02-12T13:14:55;18.80;;;12.18;;
20090;SDS011;10205;49.678;6.560;2023-02-12T13:17:31;17.63;;;11.82;;
20090;SDS011;10205;49.678;6.560;2023-02-12T13:20:11;15.35;;;11.20;;
20090;SDS011;10205;49.678;6.560;2023-02-12T13:22:49;16.75;;;11.50;;
20090;SDS011;10205;49.678;6.560;2023-02-12T13:25:27;16.58;;;11.50;;
20090;SDS011;10205;49.678;6.560;2023-02-12T13:28:01;15.98;;;11.07;;
20090;SDS011;10205;49.678;6.560;2023-02-12T13:30:35;17.33;;;10.80;;
20090;SDS011;10205;49.678;6.560;2023-02-12T13:33:11;16.20;;;10.40;;
20090;SDS011;10205;49.678;6.560;2023-02-12T13:35:46;14.25;;;10.18;;
20090;SDS011;10205;49.678;6.560;2023-02-12T13:38:19;15.52;;;10.38;;
20090;SDS011;10205;49.678;6.560;2023-02-12T13:40:57;12.63;;;9.27;;
20090;SDS011;10205;49.678;6.560;2023-02-12T13:43:33;11.68;;;8.75;;
20090;SDS011;10205;49.678;6.560;2023-02-12T13:46:13;13.67;;;9.13;;
20090;SDS011;10205;49.678;6.560;2023-02-12T13:48:53;13.63;;;9.30;;
20090;SDS011;10205;49.678;6.560;2023-02-12T13:51:38;12.43;;;8.93;;
20090;SDS011;10205;49.678;6.560;2023-02-12T13:54:13;17.88;;;10.27;;
20090;SDS011;10205;49.678;6.560;2023-02-12T13:57:06;13.85;;;9.60;;
20090;SDS011;10205;49.678;6.560;2023-02-12T14:02:25;12.98;;;9.45;;
20090;SDS011;10205;49.678;6.560;2023-02-12T14:05:13;12.98;;;8.10;;
20090;SDS011;10205;49.678;6.560;2023-02-12T14:07:57;11.63;;;8.38;;
20090;SDS011;10205;49.678;6.560;2023-02-12T14:10:30;11.02;;;8.57;;
20090;SDS011;10205;49.678;6.560;2023-02-12T14:15:52;10.65;;;7.70;;
20090;SDS011;10205;49.678;6.560;2023-02-12T14:18:22;9.65;;;7.80;;
20090;SDS011;10205;49.678;6.560;2023-02-12T14:27:25;11.90;;;8.52;;
20090;SDS011;10205;49.678;6.560;2023-02-12T14:30:02;10.23;;;7.78;;
20090;SDS011;10205;49.678;6.560;2023-02-12T14:32:55;10.50;;;8.30;;
20090;SDS011;10205;49.678;6.560;2023-02-12T14:41:51;9.63;;;6.97;;
20090;SDS011;10205;49.678;6.560;2023-02-12T14:50:23;10.20;;;7.35;;
20090;SDS011;10205;49.678;6.560;2023-02-12T14:53:05;9.02;;;6.57;;
20090;SDS011;10205;49.678;6.560;2023-02-12T14:55:53;9.75;;;7.40;;
20090;SDS011;10205;49.678;6.560;2023-02-12T14:58:22;10.13;;;7.55;;
20090;SDS011;10205;49.678;6.560;2023-02-12T15:00:52;9.80;;;7.07;;
20090;SDS011;10205;49.678;6.560;2023-02-12T15:03:24;9.23;;;7.03;;
20090;SDS011;10205;49.678;6.560;2023-02-12T15:06:09;8.45;;;6.70;;
20090;SDS011;10205;49.678;6.560;2023-02-12T15:08:47;9.38;;;6.75;;
20090;SDS011;10205;49.678;6.560;2023-02-12T15:11:26;8.25;;;6.20;;
20090;SDS011;10205;49.678;6.560;2023-02-12T15:14:04;8.45;;;6.70;;
20090;SDS011;10205;49.678;6.560;2023-02-12T15:16:40;8.55;;;6.63;;
20090;SDS011;10205;49.678;6.560;2023-02-12T15:19:19;8.32;;;6.55;;
20090;SDS011;10205;49.678;6.560;2023-02-12T15:22:13;8.70;;;6.68;;
20090;SDS011;10205;49.678;6.560;2023-02-12T15:24:47;7.53;;;6.43;;
20090;SDS011;10205;49.678;6.560;2023-02-12T15:27:15;9.27;;;6.25;;
20090;SDS011;10205;49.678;6.560;2023-02-12T15:29:47;9.60;;;6.37;;
20090;SDS011;10205;49.678;6.560;2023-02-12T15:32:18;6.82;;;6.05;;
20090;SDS011;10205;49.678;6.560;2023-02-12T15:34:50;9.00;;;6.47;;
20090;SDS011;10205;49.678;6.560;2023-02-12T15:37:21;8.43;;;6.63;;
20090;SDS011;10205;49.678;6.560;2023-02-12T15:39:52;7.85;;;5.90;;
20090;SDS011;10205;49.678;6.560;2023-02-12T15:42:24;8.65;;;6.20;;
20090;SDS011;10205;49.678;6.560;2023-02-12T15:45:17;9.07;;;6.45;;
20090;SDS011;10205;49.678;6.560;2023-02-12T15:47:59;7.47;;;6.07;;